createdAt,value
2022-09-27T00:00:04.310Z,11.94
2022-09-27T00:01:04.272Z,11.94
2022-09-27T00:02:04.299Z,11.94
2022-09-27T00:03:04.365Z,11.94
2022-09-27T00:04:04.310Z,11.94
2022-09-27T00:05:04.303Z,11.94
2022-09-27T00:06:04.306Z,11.94
2022-09-27T00:07:04.310Z,11.94
2022-09-27T00:08:04.320Z,11.94
2022-09-27T00:09:04.223Z,11.94
2022-09-27T00:10:04.655Z,11.88
2022-09-27T00:11:04.466Z,11.88
2022-09-27T00:12:04.420Z,11.88
2022-09-27T00:13:04.376Z,11.88
2022-09-27T00:14:03.495Z,11.88
2022-09-27T00:15:04.476Z,11.88
2022-09-27T00:16:03.614Z,11.88
2022-09-27T00:17:03.506Z,11.88
2022-09-27T00:18:03.575Z,11.88
2022-09-27T00:19:03.977Z,11.88
2022-09-27T00:20:03.577Z,11.88
2022-09-27T00:21:03.664Z,11.88
2022-09-27T00:22:03.588Z,11.88
2022-09-27T00:23:03.659Z,11.88
2022-09-27T00:24:03.662Z,11.88
2022-09-27T00:25:03.746Z,11.88
2022-09-27T00:26:03.784Z,11.88
2022-09-27T00:27:03.842Z,11.88
2022-09-27T00:28:03.817Z,11.81
2022-09-27T00:29:03.746Z,11.88
2022-09-27T00:30:03.746Z,11.88
2022-09-27T00:31:04.004Z,11.88
2022-09-27T00:32:03.926Z,11.81
2022-09-27T00:33:04.073Z,11.81
2022-09-27T00:34:04.073Z,11.81
2022-09-27T00:35:03.900Z,11.81
2022-09-27T00:36:03.509Z,11.81
2022-09-27T00:37:03.591Z,11.81
2022-09-27T00:38:03.514Z,11.81
2022-09-27T00:39:03.671Z,11.81
2022-09-27T00:40:03.824Z,11.75
2022-09-27T00:41:03.885Z,11.75
2022-09-27T00:42:03.923Z,11.75
2022-09-27T00:43:03.815Z,11.75
2022-09-27T00:44:03.812Z,11.75
2022-09-27T00:45:03.981Z,11.75
2022-09-27T00:46:04.131Z,11.75
2022-09-27T00:47:04.067Z,11.75
2022-09-27T00:48:04.082Z,11.69
2022-09-27T00:49:03.989Z,11.69
2022-09-27T00:50:04.077Z,11.69
2022-09-27T00:51:04.074Z,11.69
2022-09-27T00:52:04.146Z,11.69
2022-09-27T00:53:04.231Z,11.69
2022-09-27T00:54:04.245Z,11.69
2022-09-27T00:55:04.154Z,11.62
2022-09-27T00:56:04.232Z,11.62
2022-09-27T00:57:04.220Z,11.62
2022-09-27T00:58:04.228Z,11.62
2022-09-27T00:59:04.229Z,11.62
2022-09-27T01:00:04.226Z,11.62
2022-09-27T01:01:04.281Z,11.62
2022-09-27T01:02:04.452Z,11.56
2022-09-27T01:03:04.366Z,11.62
2022-09-27T01:04:04.454Z,11.62
2022-09-27T01:05:03.510Z,11.56
2022-09-27T01:06:03.590Z,11.56
2022-09-27T01:07:03.592Z,11.56
2022-09-27T01:08:03.590Z,11.56
2022-09-27T01:09:03.596Z,11.56
2022-09-27T01:10:03.510Z,11.56
2022-09-27T01:11:03.515Z,11.50
2022-09-27T01:12:03.676Z,11.56
2022-09-27T01:13:03.668Z,11.56
2022-09-27T01:14:03.661Z,11.56
2022-09-27T01:15:03.666Z,11.56
2022-09-27T01:16:03.736Z,11.56
2022-09-27T01:17:03.740Z,11.56
2022-09-27T01:18:03.760Z,11.50
2022-09-27T01:19:03.922Z,11.56
2022-09-27T01:20:03.917Z,11.56
2022-09-27T01:21:03.896Z,11.56
2022-09-27T01:22:03.819Z,11.56
2022-09-27T01:23:03.826Z,11.50
2022-09-27T01:24:03.910Z,11.50
2022-09-27T01:25:03.906Z,11.50
2022-09-27T01:26:03.983Z,11.50
2022-09-27T01:27:03.989Z,11.50
2022-09-27T01:28:04.063Z,11.44
2022-09-27T01:29:03.994Z,11.44
2022-09-27T01:30:04.000Z,11.44
2022-09-27T01:31:04.153Z,11.50
2022-09-27T01:32:03.977Z,11.44
2022-09-27T01:33:04.067Z,11.44
2022-09-27T01:34:03.990Z,11.44
2022-09-27T01:35:04.071Z,11.44
2022-09-27T01:36:04.006Z,11.44
2022-09-27T01:37:04.026Z,11.44
2022-09-27T01:38:03.902Z,11.44
2022-09-27T01:39:03.998Z,11.44
2022-09-27T01:40:03.899Z,11.44
2022-09-27T01:41:03.984Z,11.44
2022-09-27T01:42:03.983Z,11.44
2022-09-27T01:43:04.148Z,11.44
2022-09-27T01:44:04.092Z,11.44
2022-09-27T01:45:04.071Z,11.44
2022-09-27T01:46:04.125Z,11.44
2022-09-27T01:47:04.061Z,11.50
2022-09-27T01:48:04.261Z,11.50
2022-09-27T01:49:04.145Z,11.44
2022-09-27T01:50:04.236Z,11.50
2022-09-27T01:51:04.247Z,11.44
2022-09-27T01:52:04.244Z,11.44
2022-09-27T01:53:04.222Z,11.44
2022-09-27T01:54:04.223Z,11.38
2022-09-27T01:55:04.335Z,11.44
2022-09-27T01:56:04.380Z,11.38
2022-09-27T01:57:04.490Z,11.38
2022-09-27T01:58:04.459Z,11.38
2022-09-27T01:59:04.548Z,11.38
2022-09-27T02:00:03.516Z,11.38
2022-09-27T02:01:03.534Z,11.38
2022-09-27T02:02:03.577Z,11.38
2022-09-27T02:03:03.728Z,11.38
2022-09-27T02:04:03.627Z,11.38
2022-09-27T02:05:03.661Z,11.38
2022-09-27T02:06:03.826Z,11.38
2022-09-27T02:07:03.749Z,11.38
2022-09-27T02:08:03.658Z,11.38
2022-09-27T02:09:03.852Z,11.38
2022-09-27T02:10:03.832Z,11.31
2022-09-27T02:11:03.830Z,11.38
2022-09-27T02:12:03.826Z,11.38
2022-09-27T02:13:03.830Z,11.38
2022-09-27T02:14:03.907Z,11.31
2022-09-27T02:15:03.829Z,11.31
2022-09-27T02:16:04.059Z,11.31
2022-09-27T02:17:04.073Z,11.31
2022-09-27T02:18:04.060Z,11.31
2022-09-27T02:19:04.001Z,11.31
2022-09-27T02:20:04.068Z,11.31
2022-09-27T02:21:04.179Z,11.31
2022-09-27T02:23:04.307Z,11.31
2022-09-27T02:24:04.301Z,11.31
2022-09-27T02:25:04.393Z,11.31
2022-09-27T02:26:04.409Z,11.25
2022-09-27T02:27:04.307Z,11.25
2022-09-27T02:28:04.299Z,11.25
2022-09-27T02:29:04.388Z,11.31
2022-09-27T02:30:04.467Z,11.31
2022-09-27T02:31:04.457Z,11.25
2022-09-27T02:32:04.463Z,11.31
2022-09-27T02:33:03.590Z,11.31
2022-09-27T02:34:03.593Z,11.31
2022-09-27T02:35:03.660Z,11.31
2022-09-27T02:36:03.913Z,11.31
2022-09-27T02:37:03.827Z,11.31
2022-09-27T02:38:03.740Z,11.25
2022-09-27T02:39:03.744Z,11.25
2022-09-27T02:40:03.825Z,11.25
2022-09-27T02:41:03.971Z,11.31
2022-09-27T02:42:03.823Z,11.25
2022-09-27T02:43:03.817Z,11.25
2022-09-27T02:44:03.910Z,11.25
2022-09-27T02:45:04.017Z,11.25
2022-09-27T02:46:04.078Z,11.25
2022-09-27T02:47:04.147Z,11.19
2022-09-27T02:48:04.079Z,11.25
2022-09-27T02:49:04.233Z,11.19
2022-09-27T02:50:04.306Z,11.25
2022-09-27T02:51:04.390Z,11.19
2022-09-27T02:52:04.516Z,11.19
2022-09-27T02:53:03.510Z,11.19
2022-09-27T02:54:03.511Z,11.19
2022-09-27T02:55:04.229Z,11.19
2022-09-27T02:56:04.221Z,11.19
2022-09-27T02:57:04.319Z,11.19
2022-09-27T02:58:04.313Z,11.19
2022-09-27T02:59:04.342Z,11.19
2022-09-27T03:00:04.328Z,11.19
2022-09-27T03:01:04.452Z,11.12
2022-09-27T03:02:04.466Z,11.12
2022-09-27T03:03:03.990Z,11.12
2022-09-27T03:04:04.627Z,11.12
2022-09-27T03:05:03.760Z,11.12
2022-09-27T03:06:03.908Z,11.12
2022-09-27T03:07:03.989Z,11.12
2022-09-27T03:08:04.059Z,11.12
2022-09-27T03:09:04.063Z,11.12
2022-09-27T03:10:04.066Z,11.12
2022-09-27T03:11:04.154Z,11.12
2022-09-27T03:12:04.146Z,11.12
2022-09-27T03:13:04.306Z,11.12
2022-09-27T03:14:09.021Z,11.12
2022-09-27T03:15:04.330Z,11.12
2022-09-27T03:16:04.306Z,11.12
2022-09-27T03:17:04.392Z,11.12
2022-09-27T03:18:04.385Z,11.12
2022-09-27T03:19:04.464Z,11.12
2022-09-27T03:20:03.509Z,11.06
2022-09-27T03:21:03.517Z,11.06
2022-09-27T03:22:03.498Z,11.06
2022-09-27T03:23:04.157Z,11.06
2022-09-27T03:24:04.150Z,11.06
2022-09-27T03:25:04.144Z,11.06
2022-09-27T03:26:04.063Z,11.06
2022-09-27T03:27:04.234Z,11.06
2022-09-27T03:28:04.183Z,11.06
2022-09-27T03:29:04.226Z,11.06
2022-09-27T03:30:04.222Z,11.06
2022-09-27T03:31:04.359Z,11.06
2022-09-27T03:32:04.143Z,11.06
2022-09-27T03:33:04.220Z,11.06
2022-09-27T03:34:04.138Z,11.06
2022-09-27T03:35:04.225Z,11.06
2022-09-27T03:36:05.181Z,11.06
2022-09-27T03:37:04.178Z,11.06
2022-09-27T03:38:04.368Z,11.06
2022-09-27T03:39:04.308Z,11.06
2022-09-27T03:40:04.450Z,11.06
2022-09-27T03:41:04.337Z,11.06
2022-09-27T03:42:04.384Z,11.12
2022-09-27T03:43:04.385Z,11.12
2022-09-27T03:44:04.381Z,11.12
2022-09-27T03:45:04.388Z,11.12
2022-09-27T03:46:04.478Z,11.12
2022-09-27T03:47:04.405Z,11.12
2022-09-27T03:48:04.232Z,11.12
2022-09-27T03:49:04.225Z,11.12
2022-09-27T03:50:04.311Z,11.12
2022-09-27T03:51:04.226Z,11.12
2022-09-27T03:52:04.244Z,11.12
2022-09-27T03:53:04.230Z,11.12
2022-09-27T03:54:04.216Z,11.19
2022-09-27T03:55:04.227Z,11.12
2022-09-27T03:56:03.664Z,11.12
2022-09-27T03:57:03.749Z,11.12
2022-09-27T03:58:03.675Z,11.12
2022-09-27T03:59:03.582Z,11.19
2022-09-27T04:00:03.751Z,11.12
2022-09-27T04:01:04.374Z,11.12
2022-09-27T04:02:04.433Z,11.12
2022-09-27T04:03:04.386Z,11.12
2022-09-27T04:04:06.478Z,11.12
2022-09-27T04:05:03.516Z,11.12
2022-09-27T04:06:03.588Z,11.12
2022-09-27T04:07:03.660Z,11.12
2022-09-27T04:08:03.770Z,11.19
2022-09-27T04:09:03.664Z,11.12
2022-09-27T04:10:03.675Z,11.12
2022-09-27T04:11:03.823Z,11.12
2022-09-27T04:12:03.909Z,11.12
2022-09-27T04:13:03.532Z,11.12
2022-09-27T04:14:04.071Z,11.12
2022-09-27T04:15:04.049Z,11.12
2022-09-27T04:16:04.164Z,11.12
2022-09-27T04:17:04.167Z,11.12
2022-09-27T04:18:04.141Z,11.12
2022-09-27T04:19:04.143Z,11.12
2022-09-27T04:20:04.144Z,11.12
2022-09-27T04:21:04.239Z,11.12
2022-09-27T04:22:04.301Z,11.12
2022-09-27T04:23:04.472Z,11.12
2022-09-27T04:24:04.387Z,11.12
2022-09-27T04:25:04.635Z,11.12
2022-09-27T04:26:03.771Z,11.12
2022-09-27T04:27:03.822Z,11.12
2022-09-27T04:28:03.828Z,11.12
2022-09-27T04:29:03.827Z,11.12
2022-09-27T04:30:03.826Z,11.12
2022-09-27T04:31:03.876Z,11.12
2022-09-27T04:32:03.823Z,11.12
2022-09-27T04:33:03.751Z,11.19
2022-09-27T04:34:03.743Z,11.19
2022-09-27T04:35:04.061Z,11.25
2022-09-27T04:36:04.065Z,11.25
2022-09-27T04:37:04.069Z,11.19
2022-09-27T04:38:04.059Z,11.25
2022-09-27T04:39:04.236Z,11.25
2022-09-27T04:40:04.076Z,11.19
2022-09-27T04:41:04.320Z,11.19
2022-09-27T04:42:04.143Z,11.25
2022-09-27T04:43:04.142Z,11.25
2022-09-27T04:44:04.220Z,11.25
2022-09-27T04:45:04.315Z,11.25
2022-09-27T04:46:04.358Z,11.19
2022-09-27T04:47:04.359Z,11.25
2022-09-27T04:48:04.392Z,11.19
2022-09-27T04:49:04.303Z,11.19
2022-09-27T04:50:04.498Z,11.19
2022-09-27T04:51:04.466Z,11.19
2022-09-27T04:52:04.388Z,11.19
2022-09-27T04:53:03.587Z,11.19
2022-09-27T04:54:03.605Z,11.19
2022-09-27T04:55:03.585Z,11.19
2022-09-27T04:56:03.594Z,11.19
2022-09-27T04:57:03.588Z,11.19
2022-09-27T04:58:03.667Z,11.19
2022-09-27T04:59:06.866Z,11.19
2022-09-27T05:00:03.738Z,11.19
2022-09-27T05:01:03.888Z,11.19
2022-09-27T05:02:03.997Z,11.19
2022-09-27T05:03:03.822Z,11.19
2022-09-27T05:04:03.923Z,11.19
2022-09-27T05:05:03.908Z,11.19
2022-09-27T05:06:03.904Z,11.19
2022-09-27T05:07:04.079Z,11.19
2022-09-27T05:08:03.991Z,11.19
2022-09-27T05:09:04.067Z,11.19
2022-09-27T05:10:04.075Z,11.19
2022-09-27T05:11:04.072Z,11.19
2022-09-27T05:12:03.991Z,11.19
2022-09-27T05:13:04.062Z,11.12
2022-09-27T05:14:03.509Z,11.12
2022-09-27T05:15:04.414Z,11.12
2022-09-27T05:16:04.465Z,11.12
2022-09-27T05:17:04.258Z,11.12
2022-09-27T05:18:04.390Z,11.12
2022-09-27T05:19:04.384Z,11.12
2022-09-27T05:20:04.389Z,11.12
2022-09-27T05:21:04.378Z,11.12
2022-09-27T05:22:04.458Z,11.12
2022-09-27T05:23:04.234Z,11.12
2022-09-27T05:24:04.236Z,11.12
2022-09-27T05:25:04.363Z,11.12
2022-09-27T05:26:03.416Z,11.12
2022-09-27T05:27:03.588Z,11.12
2022-09-27T05:28:03.663Z,11.12
2022-09-27T05:29:03.659Z,11.12
2022-09-27T05:30:03.672Z,11.12
2022-09-27T05:31:03.707Z,11.19
2022-09-27T05:32:03.844Z,11.19
2022-09-27T05:33:03.914Z,11.19
2022-09-27T05:34:03.981Z,11.19
2022-09-27T05:35:03.979Z,11.19
2022-09-27T05:36:04.067Z,11.19
2022-09-27T05:37:04.239Z,11.19
2022-09-27T05:38:04.146Z,11.19
2022-09-27T05:39:04.140Z,11.19
2022-09-27T05:40:17.207Z,11.19
2022-09-27T05:41:04.458Z,11.19
2022-09-27T05:42:03.539Z,11.19
2022-09-27T05:43:04.472Z,11.19
2022-09-27T05:44:04.391Z,11.19
2022-09-27T05:45:03.512Z,11.19
2022-09-27T05:46:03.740Z,11.19
2022-09-27T05:47:03.740Z,11.19
2022-09-27T05:48:03.747Z,11.19
2022-09-27T05:49:03.835Z,11.19
2022-09-27T05:50:03.912Z,11.25
2022-09-27T05:51:03.923Z,11.25
2022-09-27T05:52:03.821Z,11.25
2022-09-27T05:53:03.500Z,11.25
2022-09-27T05:54:03.598Z,11.25
2022-09-27T05:55:03.510Z,11.25
2022-09-27T05:56:03.586Z,11.25
2022-09-27T05:57:03.670Z,11.31
2022-09-27T05:58:03.595Z,11.25
2022-09-27T05:59:03.839Z,11.25
2022-09-27T06:00:03.833Z,11.31
2022-09-27T06:01:03.904Z,11.31
2022-09-27T06:02:04.300Z,11.31
2022-09-27T06:03:04.188Z,11.31
2022-09-27T06:04:03.586Z,11.31
2022-09-27T06:05:03.738Z,11.31
2022-09-27T06:06:03.820Z,11.31
2022-09-27T06:07:03.770Z,11.38
2022-09-27T06:08:03.673Z,11.38
2022-09-27T06:09:03.684Z,11.38
2022-09-27T06:10:04.477Z,11.38
2022-09-27T06:11:04.480Z,11.38
2022-09-27T06:12:04.425Z,11.44
2022-09-27T06:13:04.401Z,11.44
2022-09-27T06:14:04.463Z,11.44
2022-09-27T06:15:04.391Z,11.44
2022-09-27T06:16:04.381Z,11.44
2022-09-27T06:17:04.585Z,11.50
2022-09-27T06:18:03.594Z,11.50
2022-09-27T06:19:03.675Z,11.50
2022-09-27T06:20:03.600Z,11.50
2022-09-27T06:21:03.679Z,11.50
2022-09-27T06:22:03.754Z,11.56
2022-09-27T06:23:03.746Z,11.56
2022-09-27T06:24:03.745Z,11.56
2022-09-27T06:25:03.909Z,11.56
2022-09-27T06:26:03.829Z,11.56
2022-09-27T06:27:03.902Z,11.62
2022-09-27T06:28:03.832Z,11.62
2022-09-27T06:29:03.834Z,11.62
2022-09-27T06:30:03.987Z,11.62
2022-09-27T06:31:04.079Z,11.69
2022-09-27T06:32:04.152Z,11.69
2022-09-27T06:33:04.150Z,11.69
2022-09-27T06:34:04.241Z,11.69
2022-09-27T06:35:04.229Z,11.69
2022-09-27T06:36:04.269Z,11.69
2022-09-27T06:37:04.165Z,11.69
2022-09-27T06:38:04.233Z,11.75
2022-09-27T06:39:04.353Z,11.75
2022-09-27T06:40:04.490Z,11.75
2022-09-27T06:41:04.393Z,11.81
2022-09-27T06:42:04.385Z,11.81
2022-09-27T06:43:04.384Z,11.81
2022-09-27T06:44:03.434Z,11.81
2022-09-27T06:45:03.587Z,11.88
2022-09-27T06:46:03.591Z,11.88
2022-09-27T06:47:03.583Z,11.88
2022-09-27T06:48:04.466Z,11.94
2022-09-27T06:49:03.588Z,11.88
2022-09-27T06:50:04.462Z,11.94
2022-09-27T06:51:04.470Z,11.88
2022-09-27T06:52:03.601Z,11.88
2022-09-27T06:53:03.671Z,11.88
2022-09-27T06:54:03.612Z,11.88
2022-09-27T06:55:03.663Z,11.88
2022-09-27T06:56:03.836Z,11.94
2022-09-27T06:57:03.738Z,11.94
2022-09-27T06:58:04.069Z,11.94
2022-09-27T06:59:03.907Z,11.88
2022-09-27T07:00:03.940Z,11.94
2022-09-27T07:01:04.111Z,11.94
2022-09-27T07:02:04.191Z,11.94
2022-09-27T07:03:04.064Z,11.94
2022-09-27T07:04:04.139Z,11.94
2022-09-27T07:05:04.223Z,11.94
2022-09-27T07:06:04.467Z,11.94
2022-09-27T07:07:04.393Z,11.94
2022-09-27T07:08:03.419Z,12.00
2022-09-27T07:09:03.581Z,12.00
2022-09-27T07:10:07.694Z,12.00
2022-09-27T07:11:03.589Z,11.94
2022-09-27T07:12:03.741Z,12.00
2022-09-27T07:13:03.703Z,12.00
2022-09-27T07:14:03.760Z,12.00
2022-09-27T07:15:03.751Z,12.00
2022-09-27T07:16:03.885Z,12.00
2022-09-27T07:17:03.905Z,12.00
2022-09-27T07:18:03.978Z,12.00
2022-09-27T07:19:03.981Z,12.06
2022-09-27T07:20:03.903Z,12.06
2022-09-27T07:21:03.911Z,12.06
2022-09-27T07:22:03.990Z,12.06
2022-09-27T07:23:03.905Z,12.06
2022-09-27T07:24:03.907Z,12.06
2022-09-27T07:25:03.904Z,12.06
2022-09-27T07:26:04.008Z,12.06
2022-09-27T07:27:03.998Z,12.06
2022-09-27T07:28:03.999Z,12.06
2022-09-27T07:29:03.909Z,12.06
2022-09-27T07:30:03.827Z,12.06
2022-09-27T07:31:03.904Z,12.06
2022-09-27T07:32:03.991Z,12.06
2022-09-27T07:33:04.077Z,12.06
2022-09-27T07:34:04.061Z,12.06
2022-09-27T07:35:04.066Z,12.06
2022-09-27T07:36:04.147Z,12.06
2022-09-27T07:37:04.154Z,12.06
2022-09-27T07:38:04.141Z,12.06
2022-09-27T07:39:04.146Z,12.06
2022-09-27T07:40:04.144Z,12.06
2022-09-27T07:41:04.159Z,12.00
2022-09-27T07:42:04.328Z,12.00
2022-09-27T07:43:04.319Z,12.00
2022-09-27T07:44:04.315Z,11.94
2022-09-27T07:45:08.528Z,11.94
2022-09-27T07:46:04.411Z,11.94
2022-09-27T07:47:04.390Z,11.94
2022-09-27T07:48:04.221Z,11.94
2022-09-27T07:49:04.220Z,11.94
2022-09-27T07:50:04.302Z,11.94
2022-09-27T07:51:04.394Z,11.94
2022-09-27T07:52:03.499Z,11.88
2022-09-27T07:53:03.577Z,11.88
2022-09-27T07:54:07.968Z,11.88
2022-09-27T07:55:03.664Z,11.88
2022-09-27T07:56:03.654Z,11.88
2022-09-27T07:57:03.745Z,11.88
2022-09-27T07:58:03.664Z,11.88
2022-09-27T07:59:03.743Z,11.88
2022-09-27T08:00:03.764Z,11.88
2022-09-27T08:01:03.861Z,11.88
2022-09-27T08:02:03.842Z,11.88
2022-09-27T08:03:03.834Z,11.88
2022-09-27T08:04:03.754Z,11.88
2022-09-27T08:05:03.826Z,11.88
2022-09-27T08:06:03.900Z,11.88
2022-09-27T08:07:03.915Z,11.88
2022-09-27T08:08:03.903Z,11.88
2022-09-27T08:09:04.003Z,11.88
2022-09-27T08:10:03.906Z,11.88
2022-09-27T08:11:03.909Z,11.88
2022-09-27T08:12:04.136Z,11.88
2022-09-27T08:13:04.245Z,11.88
2022-09-27T08:14:04.146Z,11.88
2022-09-27T08:15:04.146Z,11.88
2022-09-27T08:16:04.359Z,11.88
2022-09-27T08:17:04.388Z,11.88
2022-09-27T08:18:04.388Z,11.88
2022-09-27T08:19:04.466Z,11.88
2022-09-27T08:20:04.461Z,11.88
2022-09-27T08:21:04.474Z,11.88
2022-09-27T08:22:04.469Z,11.94
2022-09-27T08:23:04.559Z,11.94
2022-09-27T08:24:04.468Z,11.94
2022-09-27T08:25:04.382Z,11.94
2022-09-27T08:26:03.495Z,11.94
2022-09-27T08:27:05.168Z,12.00
2022-09-27T08:28:03.507Z,12.00
2022-09-27T08:29:03.579Z,12.00
2022-09-27T08:30:03.583Z,12.00
2022-09-27T08:31:03.823Z,12.00
2022-09-27T08:32:04.505Z,12.06
2022-09-27T08:33:04.544Z,12.06
2022-09-27T08:34:03.530Z,12.06
2022-09-27T08:35:03.586Z,12.06
2022-09-27T08:36:03.616Z,12.06
2022-09-27T08:37:03.550Z,12.12
2022-09-27T08:38:04.391Z,12.12
2022-09-27T08:39:04.465Z,12.12
2022-09-27T08:40:04.461Z,12.12
2022-09-27T08:41:03.601Z,12.12
2022-09-27T08:42:03.507Z,12.12
2022-09-27T08:43:03.513Z,12.12
2022-09-27T08:44:03.833Z,12.12
2022-09-27T08:45:04.019Z,12.12
2022-09-27T08:46:03.972Z,12.12
2022-09-27T08:47:03.986Z,12.12
2022-09-27T08:48:03.985Z,12.12
2022-09-27T08:49:03.985Z,12.12
2022-09-27T08:50:03.900Z,12.19
2022-09-27T08:51:04.062Z,12.19
2022-09-27T08:52:04.070Z,12.19
2022-09-27T08:53:04.336Z,12.19
2022-09-27T08:54:04.329Z,12.25
2022-09-27T08:55:04.323Z,12.25
2022-09-27T08:56:04.222Z,12.31
2022-09-27T08:57:04.219Z,12.31
2022-09-27T08:58:04.269Z,12.31
2022-09-27T08:59:04.236Z,12.38
2022-09-27T09:00:04.305Z,12.38
2022-09-27T09:01:04.426Z,12.44
2022-09-27T09:02:04.343Z,12.44
2022-09-27T09:03:04.312Z,12.44
2022-09-27T09:04:04.414Z,12.50
2022-09-27T09:05:04.544Z,12.50
2022-09-27T09:06:04.467Z,12.56
2022-09-27T09:07:03.651Z,12.56
2022-09-27T09:08:03.672Z,12.62
2022-09-27T09:09:03.697Z,12.62
2022-09-27T09:10:03.756Z,12.62
2022-09-27T09:11:03.744Z,12.69
2022-09-27T09:12:03.921Z,12.69
2022-09-27T09:13:03.816Z,12.69
2022-09-27T09:14:03.825Z,12.69
2022-09-27T09:15:03.819Z,12.75
2022-09-27T09:16:03.964Z,12.75
2022-09-27T09:17:03.997Z,12.75
2022-09-27T09:18:03.989Z,12.81
2022-09-27T09:19:03.991Z,12.81
2022-09-27T09:20:04.066Z,12.88
2022-09-27T09:21:04.077Z,12.88
2022-09-27T09:22:04.198Z,12.94
2022-09-27T09:23:04.071Z,12.94
2022-09-27T09:24:04.059Z,12.94
2022-09-27T09:25:04.232Z,13.00
2022-09-27T09:26:04.229Z,13.00
2022-09-27T09:27:04.221Z,13.06
2022-09-27T09:28:03.832Z,13.06
2022-09-27T09:29:04.030Z,13.06
2022-09-27T09:30:03.746Z,13.06
2022-09-27T09:31:03.740Z,13.06
2022-09-27T09:32:03.984Z,13.06
2022-09-27T09:33:03.911Z,13.06
2022-09-27T09:34:03.822Z,13.00
2022-09-27T09:35:03.820Z,13.00
2022-09-27T09:36:03.977Z,13.00
2022-09-27T09:37:03.999Z,13.00
2022-09-27T09:38:03.996Z,12.94
2022-09-27T09:39:03.982Z,12.94
2022-09-27T09:40:08.212Z,12.88
2022-09-27T09:41:04.235Z,12.88
2022-09-27T09:42:03.910Z,12.81
2022-09-27T09:43:03.985Z,12.81
2022-09-27T09:44:03.983Z,12.81
2022-09-27T09:45:04.149Z,12.75
2022-09-27T09:46:04.383Z,12.75
2022-09-27T09:47:04.329Z,12.75
2022-09-27T09:48:04.305Z,12.69
2022-09-27T09:49:04.469Z,12.62
2022-09-27T09:50:03.544Z,12.62
2022-09-27T09:51:03.507Z,12.62
2022-09-27T09:52:08.077Z,12.56
2022-09-27T09:53:03.981Z,12.56
2022-09-27T09:54:03.989Z,12.50
2022-09-27T09:55:03.902Z,12.50
2022-09-27T09:56:03.988Z,12.50
2022-09-27T09:57:03.979Z,12.50
2022-09-27T09:58:04.145Z,12.44
2022-09-27T09:59:04.219Z,12.44
2022-09-27T10:00:04.224Z,12.44
2022-09-27T10:01:04.243Z,12.44
2022-09-27T10:02:04.238Z,12.44
2022-09-27T10:03:04.394Z,12.44
2022-09-27T10:04:04.234Z,12.38
2022-09-27T10:05:07.599Z,12.38
2022-09-27T10:06:04.306Z,12.38
2022-09-27T10:07:04.224Z,12.38
2022-09-27T10:08:04.383Z,12.38
2022-09-27T10:09:04.395Z,12.38
2022-09-27T10:10:04.414Z,12.38
2022-09-27T10:11:04.303Z,12.31
2022-09-27T10:12:04.402Z,12.31
2022-09-27T10:13:04.395Z,12.31
2022-09-27T10:14:03.512Z,12.31
2022-09-27T10:15:03.695Z,12.31
2022-09-27T10:16:03.628Z,12.31
2022-09-27T10:17:03.675Z,12.31
2022-09-27T10:18:03.667Z,12.31
2022-09-27T10:19:03.739Z,12.31
2022-09-27T10:20:03.817Z,12.31
2022-09-27T10:21:03.903Z,12.31
2022-09-27T10:22:03.912Z,12.31
2022-09-27T10:23:03.983Z,12.38
2022-09-27T10:24:04.076Z,12.38
2022-09-27T10:25:04.225Z,12.38
2022-09-27T10:26:04.398Z,12.44
2022-09-27T10:27:04.379Z,12.44
2022-09-27T10:28:04.392Z,12.44
2022-09-27T10:29:04.395Z,12.50
2022-09-27T10:30:04.470Z,12.50
2022-09-27T10:31:04.387Z,12.56
2022-09-27T10:32:03.508Z,12.62
2022-09-27T10:33:03.676Z,12.62
2022-09-27T10:34:03.614Z,12.69
2022-09-27T10:35:03.747Z,12.69
2022-09-27T10:36:03.738Z,12.75
2022-09-27T10:37:03.734Z,12.81
2022-09-27T10:38:03.825Z,12.88
2022-09-27T10:39:03.751Z,12.88
2022-09-27T10:40:03.913Z,12.94
2022-09-27T10:41:03.927Z,13.00
2022-09-27T10:42:03.910Z,13.06
2022-09-27T10:43:03.992Z,13.12
2022-09-27T10:44:03.991Z,13.19
2022-09-27T10:45:04.067Z,13.25
2022-09-27T10:46:04.102Z,13.25
2022-09-27T10:47:03.988Z,13.31
2022-09-27T10:48:04.160Z,13.38
2022-09-27T10:49:04.161Z,13.44
2022-09-27T10:50:03.503Z,13.44
2022-09-27T10:51:03.759Z,13.50
2022-09-27T10:52:04.150Z,13.50
2022-09-27T10:53:04.231Z,13.56
2022-09-27T10:54:04.391Z,13.56
2022-09-27T10:55:04.301Z,13.62
2022-09-27T10:56:04.459Z,13.69
2022-09-27T10:57:03.595Z,13.75
2022-09-27T10:58:03.507Z,13.75
2022-09-27T10:59:04.386Z,13.81
2022-09-27T11:00:04.382Z,13.81
2022-09-27T11:01:03.684Z,13.81
2022-09-27T11:02:03.502Z,13.81
2022-09-27T11:03:03.665Z,13.81
2022-09-27T11:04:03.576Z,13.81
2022-09-27T11:05:04.134Z,13.81
2022-09-27T11:06:04.150Z,13.75
2022-09-27T11:07:04.225Z,13.75
2022-09-27T11:08:04.318Z,13.75
2022-09-27T11:09:04.406Z,13.69
2022-09-27T11:10:04.328Z,13.69
2022-09-27T11:11:04.395Z,13.62
2022-09-27T11:12:04.462Z,13.62
2022-09-27T11:13:04.604Z,13.56
2022-09-27T11:14:03.514Z,13.50
2022-09-27T11:15:03.664Z,13.50
2022-09-27T11:16:03.711Z,13.50
2022-09-27T11:17:03.668Z,13.50
2022-09-27T11:18:03.660Z,13.56
2022-09-27T11:19:03.695Z,13.56
2022-09-27T11:20:03.668Z,13.56
2022-09-27T11:21:03.658Z,13.62
2022-09-27T11:22:03.735Z,13.62
2022-09-27T11:23:03.824Z,13.69
2022-09-27T11:24:03.744Z,13.69
2022-09-27T11:25:03.744Z,13.75
2022-09-27T11:26:03.818Z,13.81
2022-09-27T11:27:03.855Z,13.81
2022-09-27T11:28:03.913Z,13.81
2022-09-27T11:29:03.913Z,13.81
2022-09-27T11:30:03.821Z,13.88
2022-09-27T11:31:04.001Z,13.88
2022-09-27T11:32:04.066Z,13.88
2022-09-27T11:33:04.074Z,13.94
2022-09-27T11:34:04.156Z,13.94
2022-09-27T11:35:04.165Z,13.94
2022-09-27T11:36:04.153Z,14.00
2022-09-27T11:37:04.071Z,14.00
2022-09-27T11:38:04.069Z,14.00
2022-09-27T11:39:03.984Z,14.00
2022-09-27T11:40:04.074Z,14.00
2022-09-27T11:41:04.075Z,14.00
2022-09-27T11:42:04.067Z,14.06
2022-09-27T11:43:04.076Z,14.06
2022-09-27T11:44:04.239Z,14.12
2022-09-27T11:46:16.483Z,14.19
2022-09-27T11:47:03.748Z,14.19
2022-09-27T11:48:03.821Z,14.25
2022-09-27T11:49:03.844Z,14.25
2022-09-27T11:50:03.827Z,14.25
2022-09-27T11:51:03.895Z,14.25
2022-09-27T11:52:03.943Z,14.25
2022-09-27T11:53:04.070Z,14.31
2022-09-27T11:54:04.021Z,14.31
2022-09-27T11:55:04.062Z,14.31
2022-09-27T11:56:04.147Z,14.31
2022-09-27T11:57:04.065Z,14.31
2022-09-27T11:58:04.145Z,14.31
2022-09-27T11:59:04.236Z,14.31
2022-09-27T12:00:04.238Z,14.38
2022-09-27T12:01:04.247Z,14.38
2022-09-27T12:02:04.411Z,14.38
2022-09-27T12:03:05.264Z,14.44
2022-09-27T12:04:04.402Z,14.44
2022-09-27T12:05:03.915Z,14.44
2022-09-27T12:06:07.411Z,14.44
2022-09-27T12:07:04.146Z,14.50
2022-09-27T12:08:04.066Z,14.50
2022-09-27T12:09:04.071Z,14.56
2022-09-27T12:10:04.148Z,14.62
2022-09-27T12:11:04.227Z,14.62
2022-09-27T12:12:04.216Z,14.62
2022-09-27T12:13:04.403Z,14.62
2022-09-27T12:14:04.461Z,14.62
2022-09-27T12:15:06.850Z,14.62
2022-09-27T12:16:03.652Z,14.69
2022-09-27T12:17:03.826Z,14.69
2022-09-27T12:18:03.833Z,14.69
2022-09-27T12:19:03.830Z,14.69
2022-09-27T12:20:03.839Z,14.69
2022-09-27T12:21:03.908Z,14.69
2022-09-27T12:22:03.824Z,14.69
2022-09-27T12:23:03.818Z,14.69
2022-09-27T12:24:03.999Z,14.69
2022-09-27T12:25:03.898Z,14.69
2022-09-27T12:26:03.928Z,14.69
2022-09-27T12:27:04.021Z,14.69
2022-09-27T12:28:03.911Z,14.69
2022-09-27T12:29:03.905Z,14.75
2022-09-27T12:30:03.910Z,14.75
2022-09-27T12:32:04.190Z,14.81
2022-09-27T12:33:04.150Z,14.88
2022-09-27T12:34:04.148Z,14.88
2022-09-27T12:35:04.390Z,14.88
2022-09-27T12:36:03.509Z,14.88
2022-09-27T12:37:03.593Z,14.88
2022-09-27T12:38:03.628Z,14.88
2022-09-27T12:39:03.509Z,14.94
2022-09-27T12:40:03.768Z,14.94
2022-09-27T12:41:03.843Z,14.94
2022-09-27T12:42:03.753Z,14.94
2022-09-27T12:43:03.912Z,14.94
2022-09-27T12:44:04.075Z,14.94
2022-09-27T12:45:03.977Z,14.88
2022-09-27T12:46:03.984Z,14.88
2022-09-27T12:47:04.154Z,14.88
2022-09-27T12:48:04.226Z,14.88
2022-09-27T12:49:04.392Z,14.81
2022-09-27T12:50:04.320Z,14.81
2022-09-27T12:51:04.378Z,14.81
2022-09-27T12:52:04.383Z,14.75
2022-09-27T12:53:04.433Z,14.75
2022-09-27T12:54:03.550Z,14.75
2022-09-27T12:55:03.513Z,14.75